sensor_id;sensor_type;location;lat;lon;timestamp;P1;durP1;ratioP1;P2;durP2;ratioP2
75700;SDS011;64321;48.796;44.740;2023-11-19T00:01:30;11.27;;;5.75;;
75700;SDS011;64321;48.796;44.740;2023-11-19T00:06:33;9.93;;;4.25;;
75700;SDS011;64321;48.796;44.740;2023-11-19T00:11:35;9.13;;;4.03;;
75700;SDS011;64321;48.796;44.740;2023-11-19T00:16:38;10.32;;;5.45;;
75700;SDS011;64321;48.796;44.740;2023-11-19T00:21:40;8.50;;;3.83;;
75700;SDS011;64321;48.796;44.740;2023-11-19T00:26:43;8.13;;;3.58;;
75700;SDS011;64321;48.796;44.740;2023-11-19T00:31:46;9.20;;;3.88;;
75700;SDS011;64321;48.796;44.740;2023-11-19T00:36:48;8.43;;;4.45;;
75700;SDS011;64321;48.796;44.740;2023-11-19T00:41:51;9.70;;;5.47;;
75700;SDS011;64321;48.796;44.740;2023-11-19T00:46:54;10.63;;;5.57;;
75700;SDS011;64321;48.796;44.740;2023-11-19T00:51:56;9.93;;;4.28;;
75700;SDS011;64321;48.796;44.740;2023-11-19T00:56:58;8.13;;;3.08;;
75700;SDS011;64321;48.796;44.740;2023-11-19T01:02:01;10.43;;;4.22;;
75700;SDS011;64321;48.796;44.740;2023-11-19T01:07:05;10.85;;;5.57;;
75700;SDS011;64321;48.796;44.740;2023-11-19T01:12:08;8.38;;;3.53;;
75700;SDS011;64321;48.796;44.740;2023-11-19T01:17:14;8.88;;;4.40;;
75700;SDS011;64321;48.796;44.740;2023-11-19T01:22:19;9.85;;;4.28;;
75700;SDS011;64321;48.796;44.740;2023-11-19T01:27:21;9.98;;;5.68;;
75700;SDS011;64321;48.796;44.740;2023-11-19T01:32:23;11.48;;;4.70;;
75700;SDS011;64321;48.796;44.740;2023-11-19T01:37:26;8.20;;;4.35;;
75700;SDS011;64321;48.796;44.740;2023-11-19T01:42:28;7.10;;;4.15;;
75700;SDS011;64321;48.796;44.740;2023-11-19T01:47:30;9.23;;;3.50;;
75700;SDS011;64321;48.796;44.740;2023-11-19T01:52:34;8.23;;;3.88;;
75700;SDS011;64321;48.796;44.740;2023-11-19T01:57:38;7.22;;;3.03;;
75700;SDS011;64321;48.796;44.740;2023-11-19T02:02:43;8.40;;;3.22;;
75700;SDS011;64321;48.796;44.740;2023-11-19T02:07:47;10.35;;;4.78;;
75700;SDS011;64321;48.796;44.740;2023-11-19T02:12:50;6.82;;;3.30;;
75700;SDS011;64321;48.796;44.740;2023-11-19T02:17:53;7.40;;;3.05;;
75700;SDS011;64321;48.796;44.740;2023-11-19T02:22:56;7.88;;;3.30;;
75700;SDS011;64321;48.796;44.740;2023-11-19T02:27:59;7.72;;;4.30;;
75700;SDS011;64321;48.796;44.740;2023-11-19T02:33:02;8.18;;;4.57;;
75700;SDS011;64321;48.796;44.740;2023-11-19T02:38:07;9.70;;;4.38;;
75700;SDS011;64321;48.796;44.740;2023-11-19T02:43:11;7.68;;;2.75;;
75700;SDS011;64321;48.796;44.740;2023-11-19T02:48:13;8.30;;;4.13;;
75700;SDS011;64321;48.796;44.740;2023-11-19T02:53:17;7.82;;;4.03;;
75700;SDS011;64321;48.796;44.740;2023-11-19T02:58:20;7.53;;;4.00;;
75700;SDS011;64321;48.796;44.740;2023-11-19T03:03:26;7.25;;;4.50;;
75700;SDS011;64321;48.796;44.740;2023-11-19T03:08:34;5.75;;;2.78;;
75700;SDS011;64321;48.796;44.740;2023-11-19T03:13:37;7.43;;;3.10;;
75700;SDS011;64321;48.796;44.740;2023-11-19T03:18:39;6.25;;;3.17;;
75700;SDS011;64321;48.796;44.740;2023-11-19T03:23:42;8.30;;;3.20;;
75700;SDS011;64321;48.796;44.740;2023-11-19T03:28:45;6.40;;;2.85;;
75700;SDS011;64321;48.796;44.740;2023-11-19T03:33:47;6.43;;;2.60;;
75700;SDS011;64321;48.796;44.740;2023-11-19T03:38:50;7.90;;;3.42;;
75700;SDS011;64321;48.796;44.740;2023-11-19T03:43:53;8.07;;;4.20;;
75700;SDS011;64321;48.796;44.740;2023-11-19T03:48:56;7.03;;;4.03;;
75700;SDS011;64321;48.796;44.740;2023-11-19T03:53:58;7.55;;;4.00;;
75700;SDS011;64321;48.796;44.740;2023-11-19T03:59:01;7.78;;;2.63;;
75700;SDS011;64321;48.796;44.740;2023-11-19T04:04:03;6.82;;;3.08;;
75700;SDS011;64321;48.796;44.740;2023-11-19T04:09:06;6.32;;;2.70;;
75700;SDS011;64321;48.796;44.740;2023-11-19T04:14:08;6.88;;;3.22;;
75700;SDS011;64321;48.796;44.740;2023-11-19T04:19:11;4.95;;;2.50;;
75700;SDS011;64321;48.796;44.740;2023-11-19T04:24:14;6.40;;;2.10;;
75700;SDS011;64321;48.796;44.740;2023-11-19T04:29:17;8.77;;;3.28;;
75700;SDS011;64321;48.796;44.740;2023-11-19T04:34:19;6.68;;;3.15;;
75700;SDS011;64321;48.796;44.740;2023-11-19T04:39:22;5.90;;;2.25;;
75700;SDS011;64321;48.796;44.740;2023-11-19T04:44:24;5.68;;;3.25;;
75700;SDS011;64321;48.796;44.740;2023-11-19T04:49:26;5.20;;;2.60;;
75700;SDS011;64321;48.796;44.740;2023-11-19T04:54:29;5.43;;;2.13;;
75700;SDS011;64321;48.796;44.740;2023-11-19T04:59:33;6.28;;;2.95;;
75700;SDS011;64321;48.796;44.740;2023-11-19T05:04:36;5.43;;;2.78;;
75700;SDS011;64321;48.796;44.740;2023-11-19T05:09:40;4.90;;;2.33;;
75700;SDS011;64321;48.796;44.740;2023-11-19T05:14:42;4.15;;;1.88;;
75700;SDS011;64321;48.796;44.740;2023-11-19T05:19:51;5.53;;;2.90;;
75700;SDS011;64321;48.796;44.740;2023-11-19T05:24:54;4.97;;;2.25;;
75700;SDS011;64321;48.796;44.740;2023-11-19T05:29:58;4.13;;;1.60;;
75700;SDS011;64321;48.796;44.740;2023-11-19T05:35:00;6.53;;;3.30;;
75700;SDS011;64321;48.796;44.740;2023-11-19T05:40:04;5.22;;;2.53;;
75700;SDS011;64321;48.796;44.740;2023-11-19T05:45:11;4.32;;;1.50;;
75700;SDS011;64321;48.796;44.740;2023-11-19T05:50:14;4.00;;;1.83;;
75700;SDS011;64321;48.796;44.740;2023-11-19T05:55:16;4.15;;;2.10;;
75700;SDS011;64321;48.796;44.740;2023-11-19T06:00:19;6.53;;;2.72;;
75700;SDS011;64321;48.796;44.740;2023-11-19T06:05:21;4.95;;;1.58;;
75700;SDS011;64321;48.796;44.740;2023-11-19T06:10:23;5.03;;;2.15;;
75700;SDS011;64321;48.796;44.740;2023-11-19T06:15:33;4.22;;;1.85;;
75700;SDS011;64321;48.796;44.740;2023-11-19T06:20:35;3.30;;;1.70;;
75700;SDS011;64321;48.796;44.740;2023-11-19T06:25:40;5.00;;;1.80;;
75700;SDS011;64321;48.796;44.740;2023-11-19T06:30:43;4.40;;;1.58;;
75700;SDS011;64321;48.796;44.740;2023-11-19T06:35:49;4.55;;;2.65;;
75700;SDS011;64321;48.796;44.740;2023-11-19T06:40:51;5.78;;;2.05;;
75700;SDS011;64321;48.796;44.740;2023-11-19T06:45:55;5.13;;;1.90;;
75700;SDS011;64321;48.796;44.740;2023-11-19T06:50:59;6.07;;;2.58;;
75700;SDS011;64321;48.796;44.740;2023-11-19T06:56:01;4.38;;;1.70;;
75700;SDS011;64321;48.796;44.740;2023-11-19T07:01:08;5.10;;;2.65;;
75700;SDS011;64321;48.796;44.740;2023-11-19T07:06:10;4.15;;;2.38;;
75700;SDS011;64321;48.796;44.740;2023-11-19T07:11:15;4.75;;;2.05;;
75700;SDS011;64321;48.796;44.740;2023-11-19T07:16:19;11.63;;;2.33;;
75700;SDS011;64321;48.796;44.740;2023-11-19T07:21:23;5.93;;;1.83;;
75700;SDS011;64321;48.796;44.740;2023-11-19T07:26:26;5.93;;;2.95;;
75700;SDS011;64321;48.796;44.740;2023-11-19T07:31:29;5.22;;;2.33;;
75700;SDS011;64321;48.796;44.740;2023-11-19T07:36:31;7.03;;;3.05;;
75700;SDS011;64321;48.796;44.740;2023-11-19T07:41:34;8.13;;;3.63;;
75700;SDS011;64321;48.796;44.740;2023-11-19T07:46:40;5.85;;;2.38;;
75700;SDS011;64321;48.796;44.740;2023-11-19T07:51:44;8.00;;;3.05;;
75700;SDS011;64321;48.796;44.740;2023-11-19T07:56:46;5.47;;;2.65;;
75700;SDS011;64321;48.796;44.740;2023-11-19T08:01:49;4.15;;;1.27;;
75700;SDS011;64321;48.796;44.740;2023-11-19T08:06:51;4.53;;;2.35;;
75700;SDS011;64321;48.796;44.740;2023-11-19T08:11:55;4.45;;;1.40;;
75700;SDS011;64321;48.796;44.740;2023-11-19T08:16:58;5.78;;;1.85;;
75700;SDS011;64321;48.796;44.740;2023-11-19T08:22:01;3.92;;;1.70;;
75700;SDS011;64321;48.796;44.740;2023-11-19T08:27:03;4.38;;;1.45;;
75700;SDS011;64321;48.796;44.740;2023-11-19T08:32:05;4.50;;;1.42;;
75700;SDS011;64321;48.796;44.740;2023-11-19T08:37:09;6.18;;;2.08;;
75700;SDS011;64321;48.796;44.740;2023-11-19T08:42:11;3.58;;;1.23;;
75700;SDS011;64321;48.796;44.740;2023-11-19T08:47:14;3.30;;;0.90;;
75700;SDS011;64321;48.796;44.740;2023-11-19T08:52:18;7.28;;;2.25;;
75700;SDS011;64321;48.796;44.740;2023-11-19T08:57:21;4.90;;;2.30;;
75700;SDS011;64321;48.796;44.740;2023-11-19T09:02:23;5.93;;;1.85;;
75700;SDS011;64321;48.796;44.740;2023-11-19T09:07:25;4.10;;;1.90;;
75700;SDS011;64321;48.796;44.740;2023-11-19T09:12:28;6.60;;;1.80;;
75700;SDS011;64321;48.796;44.740;2023-11-19T09:17:30;2.63;;;1.00;;
75700;SDS011;64321;48.796;44.740;2023-11-19T09:22:33;4.70;;;1.05;;
75700;SDS011;64321;48.796;44.740;2023-11-19T09:27:35;3.90;;;1.20;;
75700;SDS011;64321;48.796;44.740;2023-11-19T09:32:38;5.60;;;2.78;;
75700;SDS011;64321;48.796;44.740;2023-11-19T09:37:40;6.85;;;3.22;;
75700;SDS011;64321;48.796;44.740;2023-11-19T09:42:43;4.00;;;1.35;;
75700;SDS011;64321;48.796;44.740;2023-11-19T09:47:48;4.28;;;1.45;;
75700;SDS011;64321;48.796;44.740;2023-11-19T09:52:55;4.22;;;1.08;;
75700;SDS011;64321;48.796;44.740;2023-11-19T09:57:57;3.25;;;1.10;;
75700;SDS011;64321;48.796;44.740;2023-11-19T10:03:22;3.95;;;1.48;;
75700;SDS011;64321;48.796;44.740;2023-11-19T10:08:25;4.22;;;2.03;;
75700;SDS011;64321;48.796;44.740;2023-11-19T10:13:28;3.47;;;1.25;;
75700;SDS011;64321;48.796;44.740;2023-11-19T10:18:33;4.40;;;1.20;;
75700;SDS011;64321;48.796;44.740;2023-11-19T10:24:03;3.50;;;1.02;;
75700;SDS011;64321;48.796;44.740;2023-11-19T10:29:08;3.20;;;0.85;;
75700;SDS011;64321;48.796;44.740;2023-11-19T10:34:24;4.20;;;1.20;;
75700;SDS011;64321;48.796;44.740;2023-11-19T10:44:49;5.88;;;1.60;;
75700;SDS011;64321;48.796;44.740;2023-11-19T10:49:52;3.85;;;1.48;;
75700;SDS011;64321;48.796;44.740;2023-11-19T10:54:54;11.23;;;1.10;;
75700;SDS011;64321;48.796;44.740;2023-11-19T11:00:02;5.72;;;1.13;;
75700;SDS011;64321;48.796;44.740;2023-11-19T11:05:06;3.13;;;1.17;;
75700;SDS011;64321;48.796;44.740;2023-11-19T11:10:10;3.13;;;0.93;;
75700;SDS011;64321;48.796;44.740;2023-11-19T11:15:13;3.13;;;0.70;;
75700;SDS011;64321;48.796;44.740;2023-11-19T11:20:17;3.70;;;0.90;;
75700;SDS011;64321;48.796;44.740;2023-11-19T11:35:48;8.38;;;3.30;;
75700;SDS011;64321;48.796;44.740;2023-11-19T11:57:03;4.43;;;1.23;;
75700;SDS011;64321;48.796;44.740;2023-11-19T12:02:13;4.43;;;1.10;;
75700;SDS011;64321;48.796;44.740;2023-11-19T12:07:20;5.43;;;1.60;;
75700;SDS011;64321;48.796;44.740;2023-11-19T12:12:26;3.45;;;1.00;;
75700;SDS011;64321;48.796;44.740;2023-11-19T12:22:40;2.80;;;0.73;;
75700;SDS011;64321;48.796;44.740;2023-11-19T12:27:46;6.07;;;0.90;;
75700;SDS011;64321;48.796;44.740;2023-11-19T12:32:49;3.50;;;1.30;;
75700;SDS011;64321;48.796;44.740;2023-11-19T12:37:51;3.20;;;1.70;;
75700;SDS011;64321;48.796;44.740;2023-11-19T12:42:56;3.30;;;1.55;;
75700;SDS011;64321;48.796;44.740;2023-11-19T12:48:06;3.80;;;0.93;;
75700;SDS011;64321;48.796;44.740;2023-11-19T12:53:08;3.58;;;1.33;;
75700;SDS011;64321;48.796;44.740;2023-11-19T12:58:27;2.03;;;0.60;;
75700;SDS011;64321;48.796;44.740;2023-11-19T13:03:30;4.45;;;1.23;;
75700;SDS011;64321;48.796;44.740;2023-11-19T13:08:40;2.88;;;1.70;;
75700;SDS011;64321;48.796;44.740;2023-11-19T13:13:56;3.95;;;1.52;;
75700;SDS011;64321;48.796;44.740;2023-11-19T13:18:59;4.43;;;1.00;;
75700;SDS011;64321;48.796;44.740;2023-11-19T13:24:02;1.65;;;0.65;;
75700;SDS011;64321;48.796;44.740;2023-11-19T13:29:05;3.20;;;1.23;;
75700;SDS011;64321;48.796;44.740;2023-11-19T13:34:07;4.47;;;1.08;;
75700;SDS011;64321;48.796;44.740;2023-11-19T13:39:10;1.42;;;0.95;;
75700;SDS011;64321;48.796;44.740;2023-11-19T13:44:14;2.20;;;0.60;;
75700;SDS011;64321;48.796;44.740;2023-11-19T13:49:16;3.25;;;0.82;;
75700;SDS011;64321;48.796;44.740;2023-11-19T13:54:19;11.43;;;0.93;;
75700;SDS011;64321;48.796;44.740;2023-11-19T13:59:23;3.05;;;1.55;;
75700;SDS011;64321;48.796;44.740;2023-11-19T14:04:26;4.40;;;1.83;;
75700;SDS011;64321;48.796;44.740;2023-11-19T14:09:28;7.25;;;1.58;;
75700;SDS011;64321;48.796;44.740;2023-11-19T14:14:31;4.43;;;1.45;;
75700;SDS011;64321;48.796;44.740;2023-11-19T14:19:33;3.67;;;1.27;;
75700;SDS011;64321;48.796;44.740;2023-11-19T14:24:36;2.70;;;1.23;;
75700;SDS011;64321;48.796;44.740;2023-11-19T14:29:38;2.80;;;1.80;;
75700;SDS011;64321;48.796;44.740;2023-11-19T14:34:42;5.00;;;1.23;;
75700;SDS011;64321;48.796;44.740;2023-11-19T14:39:45;2.28;;;1.30;;
75700;SDS011;64321;48.796;44.740;2023-11-19T14:44:51;1.83;;;1.10;;
75700;SDS011;64321;48.796;44.740;2023-11-19T14:49:55;4.57;;;1.48;;
75700;SDS011;64321;48.796;44.740;2023-11-19T14:54:57;3.20;;;1.17;;
75700;SDS011;64321;48.796;44.740;2023-11-19T15:00:00;4.72;;;1.40;;
75700;SDS011;64321;48.796;44.740;2023-11-19T15:05:05;4.45;;;1.92;;
75700;SDS011;64321;48.796;44.740;2023-11-19T15:10:08;3.50;;;1.50;;
75700;SDS011;64321;48.796;44.740;2023-11-19T15:15:14;2.53;;;1.23;;
75700;SDS011;64321;48.796;44.740;2023-11-19T15:20:36;2.92;;;1.00;;
75700;SDS011;64321;48.796;44.740;2023-11-19T15:25:38;2.25;;;0.95;;
75700;SDS011;64321;48.796;44.740;2023-11-19T15:30:41;3.60;;;1.20;;
75700;SDS011;64321;48.796;44.740;2023-11-19T15:35:44;1.38;;;0.70;;
75700;SDS011;64321;48.796;44.740;2023-11-19T15:40:46;2.55;;;1.20;;
75700;SDS011;64321;48.796;44.740;2023-11-19T15:45:48;5.10;;;2.33;;
75700;SDS011;64321;48.796;44.740;2023-11-19T15:50:52;4.65;;;1.95;;
75700;SDS011;64321;48.796;44.740;2023-11-19T15:55:57;4.68;;;1.60;;
75700;SDS011;64321;48.796;44.740;2023-11-19T16:01:00;4.53;;;1.50;;
75700;SDS011;64321;48.796;44.740;2023-11-19T16:06:03;3.38;;;1.50;;
75700;SDS011;64321;48.796;44.740;2023-11-19T16:11:30;2.50;;;1.15;;
75700;SDS011;64321;48.796;44.740;2023-11-19T16:16:48;2.88;;;0.63;;
75700;SDS011;64321;48.796;44.740;2023-11-19T16:21:51;1.17;;;0.95;;
75700;SDS011;64321;48.796;44.740;2023-11-19T16:26:53;2.78;;;1.27;;
75700;SDS011;64321;48.796;44.740;2023-11-19T16:31:56;3.88;;;1.90;;
75700;SDS011;64321;48.796;44.740;2023-11-19T16:36:58;3.95;;;2.15;;
75700;SDS011;64321;48.796;44.740;2023-11-19T16:42:01;3.65;;;1.50;;
75700;SDS011;64321;48.796;44.740;2023-11-19T16:47:03;4.18;;;1.35;;
75700;SDS011;64321;48.796;44.740;2023-11-19T16:52:07;2.45;;;1.23;;
75700;SDS011;64321;48.796;44.740;2023-11-19T16:57:10;2.65;;;1.48;;
75700;SDS011;64321;48.796;44.740;2023-11-19T17:02:14;2.05;;;1.50;;
75700;SDS011;64321;48.796;44.740;2023-11-19T17:07:19;1.52;;;1.08;;
75700;SDS011;64321;48.796;44.740;2023-11-19T17:12:21;2.10;;;1.00;;
75700;SDS011;64321;48.796;44.740;2023-11-19T17:17:27;3.42;;;1.00;;
75700;SDS011;64321;48.796;44.740;2023-11-19T17:22:37;1.42;;;1.00;;
75700;SDS011;64321;48.796;44.740;2023-11-19T17:27:41;3.00;;;1.50;;
75700;SDS011;64321;48.796;44.740;2023-11-19T17:32:46;2.22;;;1.23;;
75700;SDS011;64321;48.796;44.740;2023-11-19T17:37:49;2.10;;;1.10;;
75700;SDS011;64321;48.796;44.740;2023-11-19T17:42:51;2.00;;;1.13;;
75700;SDS011;64321;48.796;44.740;2023-11-19T17:47:57;2.15;;;0.90;;
75700;SDS011;64321;48.796;44.740;2023-11-19T17:53:00;2.78;;;0.77;;
75700;SDS011;64321;48.796;44.740;2023-11-19T17:58:02;5.75;;;2.17;;
75700;SDS011;64321;48.796;44.740;2023-11-19T18:03:06;4.05;;;1.77;;
75700;SDS011;64321;48.796;44.740;2023-11-19T18:08:08;4.00;;;1.75;;
75700;SDS011;64321;48.796;44.740;2023-11-19T18:13:12;3.03;;;1.65;;
75700;SDS011;64321;48.796;44.740;2023-11-19T18:18:14;2.90;;;1.42;;
75700;SDS011;64321;48.796;44.740;2023-11-19T18:23:17;2.95;;;1.58;;
75700;SDS011;64321;48.796;44.740;2023-11-19T18:28:20;2.85;;;0.90;;
75700;SDS011;64321;48.796;44.740;2023-11-19T18:33:26;4.85;;;1.65;;
75700;SDS011;64321;48.796;44.740;2023-11-19T18:38:29;3.58;;;1.23;;
75700;SDS011;64321;48.796;44.740;2023-11-19T18:43:34;2.22;;;1.20;;
75700;SDS011;64321;48.796;44.740;2023-11-19T18:48:56;2.67;;;1.52;;
75700;SDS011;64321;48.796;44.740;2023-11-19T18:54:02;3.67;;;1.77;;
75700;SDS011;64321;48.796;44.740;2023-11-19T18:59:05;6.20;;;1.33;;
75700;SDS011;64321;48.796;44.740;2023-11-19T19:04:12;3.47;;;1.58;;
75700;SDS011;64321;48.796;44.740;2023-11-19T19:09:16;3.33;;;1.52;;
75700;SDS011;64321;48.796;44.740;2023-11-19T19:14:20;4.53;;;1.73;;
75700;SDS011;64321;48.796;44.740;2023-11-19T19:19:23;4.20;;;1.60;;
75700;SDS011;64321;48.796;44.740;2023-11-19T19:24:26;4.90;;;2.00;;
75700;SDS011;64321;48.796;44.740;2023-11-19T19:29:28;5.65;;;1.55;;
75700;SDS011;64321;48.796;44.740;2023-11-19T19:34:31;3.40;;;1.40;;
75700;SDS011;64321;48.796;44.740;2023-11-19T19:39:34;5.53;;;1.38;;
75700;SDS011;64321;48.796;44.740;2023-11-19T19:44:36;3.97;;;1.85;;
75700;SDS011;64321;48.796;44.740;2023-11-19T19:49:39;3.40;;;2.05;;
75700;SDS011;64321;48.796;44.740;2023-11-19T19:54:41;3.63;;;2.25;;
75700;SDS011;64321;48.796;44.740;2023-11-19T19:59:44;3.40;;;2.03;;
75700;SDS011;64321;48.796;44.740;2023-11-19T20:04:46;4.10;;;1.90;;
75700;SDS011;64321;48.796;44.740;2023-11-19T20:09:52;5.43;;;2.90;;
75700;SDS011;64321;48.796;44.740;2023-11-19T20:14:54;4.38;;;2.05;;
75700;SDS011;64321;48.796;44.740;2023-11-19T20:19:58;7.28;;;3.53;;
75700;SDS011;64321;48.796;44.740;2023-11-19T20:25:01;7.43;;;3.33;;
75700;SDS011;64321;48.796;44.740;2023-11-19T20:30:04;5.10;;;2.78;;
75700;SDS011;64321;48.796;44.740;2023-11-19T20:35:08;5.63;;;1.67;;
75700;SDS011;64321;48.796;44.740;2023-11-19T20:40:11;2.75;;;1.30;;
75700;SDS011;64321;48.796;44.740;2023-11-19T20:45:14;5.82;;;2.45;;
75700;SDS011;64321;48.796;44.740;2023-11-19T20:50:17;3.40;;;1.75;;
75700;SDS011;64321;48.796;44.740;2023-11-19T20:55:20;3.78;;;1.63;;
75700;SDS011;64321;48.796;44.740;2023-11-19T21:00:23;4.25;;;1.92;;
75700;SDS011;64321;48.796;44.740;2023-11-19T21:05:26;4.05;;;1.95;;
75700;SDS011;64321;48.796;44.740;2023-11-19T21:10:28;4.40;;;1.70;;
75700;SDS011;64321;48.796;44.740;2023-11-19T21:15:31;5.40;;;1.65;;
75700;SDS011;64321;48.796;44.740;2023-11-19T21:20:34;3.80;;;1.85;;
75700;SDS011;64321;48.796;44.740;2023-11-19T21:25:36;3.53;;;1.17;;
75700;SDS011;64321;48.796;44.740;2023-11-19T21:30:38;5.82;;;1.95;;
75700;SDS011;64321;48.796;44.740;2023-11-19T21:35:41;4.40;;;1.83;;
75700;SDS011;64321;48.796;44.740;2023-11-19T21:40:44;4.95;;;2.33;;
75700;SDS011;64321;48.796;44.740;2023-11-19T21:45:48;4.80;;;3.58;;
75700;SDS011;64321;48.796;44.740;2023-11-19T21:50:50;4.18;;;2.10;;
75700;SDS011;64321;48.796;44.740;2023-11-19T21:55:52;4.22;;;1.92;;
75700;SDS011;64321;48.796;44.740;2023-11-19T22:01:13;3.95;;;1.73;;
75700;SDS011;64321;48.796;44.740;2023-11-19T22:06:16;3.65;;;1.92;;
75700;SDS011;64321;48.796;44.740;2023-11-19T22:11:21;4.13;;;1.90;;
75700;SDS011;64321;48.796;44.740;2023-11-19T22:16:27;6.97;;;2.75;;
75700;SDS011;64321;48.796;44.740;2023-11-19T22:21:29;3.53;;;1.98;;
75700;SDS011;64321;48.796;44.740;2023-11-19T22:26:32;9.15;;;2.75;;
75700;SDS011;64321;48.796;44.740;2023-11-19T22:31:34;5.15;;;2.15;;
75700;SDS011;64321;48.796;44.740;2023-11-19T22:36:37;4.70;;;2.20;;
75700;SDS011;64321;48.796;44.740;2023-11-19T22:41:39;6.10;;;1.95;;
75700;SDS011;64321;48.796;44.740;2023-11-19T22:46:42;3.28;;;1.88;;
75700;SDS011;64321;48.796;44.740;2023-11-19T22:51:44;4.82;;;2.10;;
75700;SDS011;64321;48.796;44.740;2023-11-19T22:56:47;6.53;;;2.97;;
75700;SDS011;64321;48.796;44.740;2023-11-19T23:01:49;4.65;;;2.17;;
75700;SDS011;64321;48.796;44.740;2023-11-19T23:06:52;5.45;;;2.30;;
75700;SDS011;64321;48.796;44.740;2023-11-19T23:11:54;6.32;;;1.95;;
75700;SDS011;64321;48.796;44.740;2023-11-19T23:16:56;5.18;;;2.78;;
75700;SDS011;64321;48.796;44.740;2023-11-19T23:21:59;21.45;;;2.08;;
75700;SDS011;64321;48.796;44.740;2023-11-19T23:27:01;5.10;;;2.30;;
75700;SDS011;64321;48.796;44.740;2023-11-19T23:32:04;5.20;;;2.42;;
75700;SDS011;64321;48.796;44.740;2023-11-19T23:37:07;4.53;;;2.97;;
75700;SDS011;64321;48.796;44.740;2023-11-19T23:42:09;4.50;;;2.33;;
75700;SDS011;64321;48.796;44.740;2023-11-19T23:47:11;7.63;;;2.42;;
75700;SDS011;64321;48.796;44.740;2023-11-19T23:52:14;7.00;;;2.78;;
75700;SDS011;64321;48.796;44.740;2023-11-19T23:57:16;4.68;;;1.95;;
